Sunday, October 21, 2018, 11:55 PM GMT
Back to Local

CYUL, Montreal / Pierre Elliot Trudeau International Airport, Que

Location: , , Canada Lat: 45.467
Local Time: 11:55 PM GMT (23:55 GMT) Lon: -73.75
Time Zone: GMT Elev: 101 ft

Show me the last for .
Show Decoded

2018-10-21 23:00 METAR CYUL 212300Z 28010KT 15SM FEW055 BKN067 03/M06 A3001 RMK SC1AC4 SLP165 =
2018-10-21 22:00 METAR CYUL 212200Z 28015KT 15SM BKN060 BKN140 04/M07 A2999 RMK SC6AC1 SLP159 =
2018-10-21 21:00 METAR CYUL 212100Z 28018G23KT 15SM FEW050 BKN064 04/M07 A2997 RMK SC1SC6 SLP151
                 =
2018-10-21 20:00 METAR CYUL 212000Z 28014G20KT 15SM BKN058 04/M07 A2996 RMK SC7 SLP147 =
2018-10-21 19:00 METAR CYUL 211900Z 29014G24KT 15SM FEW050 BKN060 04/M07 A2995 RMK SC1SC6 SLP145
                 =
2018-10-21 18:00 METAR CYUL 211800Z 30009G21KT 15SM BKN050 04/M06 A2994 RMK SC7 SLP142 =
2018-10-21 17:00 METAR CYUL 211700Z 29018G24KT 15SM BKN057 04/M07 A2993 RMK SC7 SLP139 =
2018-10-21 16:00 METAR CYUL 211600Z 30017G25KT 15SM FEW040 BKN050 03/M07 A2994 RMK CU1SC6 SLP141
                 =
2018-10-21 15:00 METAR CYUL 211500Z 32013G23KT 15SM FEW040 OVC048 03/M07 A2992 RMK CU1SC7 SLP136
                 =
2018-10-21 14:00 METAR CYUL 211400Z 28014KT 15SM -SHSN SCT038 OVC050 02/M05 A2990 RMK CU3SC5
                 SLP129 =
2018-10-21 13:16 METAR CYUL 211316Z 29012G19KT 15SM -SHSN FEW035 OVC042 02/M05 A2990 RMK CU2SC6
                 SLP127 =
2018-10-21 13:00 METAR CYUL 211300Z 30010G18KT 30SM VCSH FEW035 OVC045 02/M06 A2989 RMK CU1SC7
                 SHWR SE-S SLP124 =
2018-10-21 12:43 METAR CYUL 211243Z 31012G20KT 30SM -SN FEW035 OVC040 02/M06 A2988 RMK CU1SC7
                 SLP122 =
2018-10-21 12:00 METAR CYUL 211200Z 31011G18KT 30SM FEW035 BKN045 02/M06 A2986 RMK SC1SC7 SC TR
                 SLP114 =
2018-10-21 11:32 METAR CYUL 211132Z 30010G17KT 15SM FEW030 OVC040 02/M06 A2984 RMK CF1SC8 CF TR
                 SLP108 =
2018-10-21 11:00 METAR CYUL 211100Z 31011G19KT 15SM OVC040 03/M06 A2982 RMK SC8 SLP101 =
2018-10-21 10:00 METAR CYUL 211000Z 30015G22KT 15SM BKN040 03/M05 A2979 RMK SC7 SLP092 =
2018-10-21 09:00 METAR CYUL 210900Z 28012KT 15SM FEW035 BKN042 BKN050 03/M04 A2977 RMK SC1SC5SC2
                 SC TR SLP085 =
2018-10-21 08:00 METAR CYUL 210800Z 27006KT 15SM OVC041 03/M03 A2975 RMK SC8 SLP077 =
2018-10-21 07:00 METAR CYUL 210700Z 30009KT 15SM BKN035 03/M03 A2974 RMK SC7 SLP072 =
2018-10-21 06:00 METAR CYUL 210600Z 28010KT 15SM BKN033 04/M02 A2972 RMK SC7 SLP066 =
2018-10-21 05:00 METAR CYUL 210500Z 27005KT 15SM SCT035 02/M02 A2970 RMK SC3 SLP061 =
2018-10-21 04:39 METAR CYUL 210439Z 26005KT 15SM FEW030 FEW070 02/M02 A2969 RMK SC1AC1 SC TR AC
                 TR SLP056 =
2018-10-21 04:00 METAR CYUL 210400Z 29009KT 15SM SCT070 04/M01 A2968 RMK AC3 SLP051 =
2018-10-21 03:00 METAR CYUL 210300Z 28009KT 15SM FEW045 SCT062 05/M01 A2964 RMK SC1SC3 SC TR
                 SLP040 =
2018-10-21 02:00 METAR CYUL 210200Z 30006KT 15SM BKN064 06/M00 A2962 RMK SC6 SLP034 =
2018-10-21 01:00 METAR CYUL 210100Z 32010G15KT 280V360 15SM FEW066 07/M01 A2960 RMK AC2 SLP026 =
2018-10-21 00:00 METAR CYUL 210000Z 32010G17KT 15SM FEW075 FEW210 FEW240 08/M02 A2957 RMK
                 AC1CI1CI1 AC TR SLP017 =

Support USWX by starting your Amazon purchase here.